createdAt,value
2023-01-06T00:02:34.204Z,2.30
2023-01-06T00:07:36.253Z,1.33
2023-01-06T00:12:36.894Z,1.40
2023-01-06T00:17:37.568Z,2.10
2023-01-06T00:22:40.505Z,1.63
2023-01-06T00:27:41.498Z,1.63
2023-01-06T00:32:42.185Z,2.00
2023-01-06T00:37:44.202Z,2.17
2023-01-06T00:42:44.879Z,1.83
2023-01-06T00:47:45.567Z,1.80
2023-01-06T00:52:48.890Z,1.85
2023-01-06T00:57:52.612Z,2.08
2023-01-06T01:02:53.415Z,2.25
2023-01-06T01:07:55.487Z,1.92
2023-01-06T01:12:56.145Z,2.17
2023-01-06T01:17:58.150Z,2.30
2023-01-06T01:23:00.140Z,2.95
2023-01-06T01:28:00.775Z,2.53
2023-01-06T01:33:01.436Z,2.58
2023-01-06T01:38:03.442Z,2.63
2023-01-06T01:43:04.130Z,3.10
2023-01-06T01:48:12.792Z,3.28
2023-01-06T01:53:19.014Z,2.60
2023-01-06T01:58:24.541Z,2.80
2023-01-06T02:03:27.393Z,2.72
2023-01-06T02:08:34.707Z,2.78
2023-01-06T02:13:40.038Z,3.28
2023-01-06T02:18:51.896Z,2.97
2023-01-06T02:24:25.012Z,2.63
2023-01-06T02:29:58.559Z,2.60
2023-01-06T02:35:13.568Z,2.60
2023-01-06T02:40:27.338Z,2.97
2023-01-06T02:45:36.647Z,3.20
2023-01-06T02:50:42.775Z,3.33
2023-01-06T02:55:47.589Z,3.00
2023-01-06T03:00:52.209Z,3.17
2023-01-06T03:06:00.418Z,2.80
2023-01-06T03:11:03.260Z,3.50
2023-01-06T03:16:06.903Z,2.90
2023-01-06T03:21:12.693Z,3.85
2023-01-06T03:26:14.194Z,2.80
2023-01-06T03:31:28.153Z,2.88
2023-01-06T03:36:40.260Z,2.75
2023-01-06T03:42:02.548Z,2.75
2023-01-06T03:47:09.004Z,2.90
2023-01-06T03:52:20.218Z,2.58
2023-01-06T03:57:25.808Z,3.45
2023-01-06T04:02:28.896Z,2.50
2023-01-06T04:07:31.821Z,2.75
2023-01-06T04:12:41.898Z,2.75
2023-01-06T04:17:48.597Z,2.63
2023-01-06T04:22:53.964Z,2.17
2023-01-06T04:27:55.228Z,2.40
2023-01-06T04:32:56.697Z,1.70
2023-01-06T04:37:58.730Z,1.83
2023-01-06T04:43:05.467Z,2.22
2023-01-06T04:48:08.525Z,2.35
2023-01-06T04:53:11.947Z,2.58
2023-01-06T04:58:12.822Z,2.35
2023-01-06T05:03:13.683Z,2.33
2023-01-06T05:08:15.663Z,3.10
2023-01-06T05:13:16.342Z,2.75
2023-01-06T05:18:16.991Z,2.13
2023-01-06T05:23:19.068Z,2.80
2023-01-06T05:28:20.185Z,2.33
2023-01-06T05:33:20.842Z,2.33
2023-01-06T05:38:22.850Z,2.20
2023-01-06T05:43:23.731Z,2.20
2023-01-06T05:48:26.036Z,2.60
2023-01-06T05:53:28.025Z,2.80
2023-01-06T05:58:28.953Z,2.50
2023-01-06T06:03:29.666Z,2.78
2023-01-06T06:08:31.746Z,3.65
2023-01-06T06:13:32.578Z,3.90
2023-01-06T06:18:33.371Z,4.05
2023-01-06T06:23:35.405Z,4.28
2023-01-06T06:28:37.378Z,4.63
2023-01-06T06:33:38.639Z,4.28
2023-01-06T06:38:40.664Z,4.47
2023-01-06T06:43:42.110Z,4.22
2023-01-06T06:48:42.891Z,4.57
2023-01-06T06:53:45.176Z,4.22
2023-01-06T06:58:46.356Z,4.47
2023-01-06T07:03:47.160Z,4.72
2023-01-06T07:08:49.952Z,4.95
2023-01-06T07:13:50.673Z,5.90
2023-01-06T07:18:51.318Z,4.60
2023-01-06T07:23:53.310Z,4.72
2023-01-06T07:28:58.392Z,5.63
2023-01-06T07:33:59.056Z,5.43
2023-01-06T07:39:01.467Z,5.47
2023-01-06T07:44:02.142Z,5.85
2023-01-06T07:49:02.856Z,6.15
2023-01-06T07:54:04.994Z,5.38
2023-01-06T07:59:05.991Z,6.35
2023-01-06T08:04:06.668Z,6.20
2023-01-06T08:09:09.131Z,7.38
2023-01-06T08:14:09.760Z,7.57
2023-01-06T08:19:10.548Z,7.15
2023-01-06T08:24:12.673Z,6.07
2023-01-06T08:29:13.650Z,7.05
2023-01-06T08:34:15.478Z,6.78
2023-01-06T08:39:17.522Z,6.15
2023-01-06T08:44:18.598Z,6.05
2023-01-06T08:49:20.438Z,5.28
2023-01-06T08:54:23.906Z,5.25
2023-01-06T08:59:24.728Z,4.72
2023-01-06T09:04:25.432Z,5.68
2023-01-06T09:09:28.778Z,5.03
2023-01-06T09:14:30.810Z,5.20
2023-01-06T09:19:31.534Z,4.68
2023-01-06T09:24:33.662Z,4.70
2023-01-06T09:29:34.498Z,4.60
2023-01-06T09:34:35.181Z,4.57
2023-01-06T09:39:37.977Z,4.60
2023-01-06T09:44:47.516Z,4.43
2023-01-06T09:49:53.042Z,4.22
2023-01-06T09:54:58.966Z,4.30
2023-01-06T10:00:02.113Z,3.97
2023-01-06T10:05:02.934Z,4.05
2023-01-06T10:10:22.234Z,3.83
2023-01-06T10:15:31.205Z,4.43
2023-01-06T10:20:53.160Z,3.97
2023-01-06T10:26:00.611Z,4.28
2023-01-06T10:31:05.798Z,3.55
2023-01-06T10:36:13.550Z,3.70
2023-01-06T10:41:23.573Z,3.40
2023-01-06T10:46:29.487Z,3.17
2023-01-06T10:51:37.852Z,3.63
2023-01-06T10:56:44.274Z,3.63
2023-01-06T11:01:54.282Z,3.40
2023-01-06T11:06:56.978Z,3.35
2023-01-06T11:12:00.948Z,3.58
2023-01-06T11:17:04.353Z,3.20
2023-01-06T11:22:06.133Z,2.88
2023-01-06T11:27:18.560Z,1.88
2023-01-06T11:32:22.706Z,1.27
2023-01-06T11:37:34.439Z,0.60
2023-01-06T11:42:36.547Z,0.40
2023-01-06T11:47:39.269Z,0.32
2023-01-06T11:52:41.145Z,0.60
2023-01-06T11:57:51.129Z,0.40
2023-01-06T12:02:56.808Z,0.68
2023-01-06T12:07:59.510Z,0.80
2023-01-06T12:13:01.680Z,0.52
2023-01-06T12:18:06.150Z,0.80
2023-01-06T12:23:12.495Z,0.50
2023-01-06T12:28:19.510Z,0.65
2023-01-06T12:33:26.099Z,0.60
2023-01-06T12:38:40.085Z,0.70
2023-01-06T12:43:50.039Z,0.47
2023-01-06T12:48:55.380Z,2.60
2023-01-06T12:54:02.989Z,0.50
2023-01-06T12:59:16.518Z,0.50
2023-01-06T13:04:41.261Z,0.70
2023-01-06T13:09:53.641Z,1.00
2023-01-06T13:15:04.778Z,1.00
2023-01-06T13:20:10.884Z,0.98
2023-01-06T13:25:42.329Z,0.90
2023-01-06T13:31:12.246Z,0.60
2023-01-06T13:36:44.700Z,0.60
2023-01-06T13:41:49.606Z,0.75
2023-01-06T13:46:54.678Z,0.47
2023-01-06T13:51:55.419Z,0.70
2023-01-06T13:57:29.278Z,0.90
2023-01-06T14:03:26.542Z,0.60
2023-01-06T14:08:35.493Z,0.60
2023-01-06T14:13:40.889Z,0.50
2023-01-06T14:18:44.238Z,0.70
2023-01-06T14:23:56.768Z,0.60
2023-01-06T14:29:36.149Z,0.57
2023-01-06T14:34:39.283Z,0.52
2023-01-06T14:39:42.831Z,0.70
2023-01-06T14:44:47.587Z,0.75
2023-01-06T14:49:57.366Z,0.50
2023-01-06T14:55:00.516Z,0.73
2023-01-06T15:00:16.269Z,0.77
2023-01-06T15:05:20.382Z,0.90
2023-01-06T15:10:22.828Z,1.00
2023-01-06T15:15:25.135Z,0.50
2023-01-06T15:20:30.519Z,1.20
2023-01-06T15:25:34.978Z,0.60
2023-01-06T15:30:36.767Z,0.70
2023-01-06T15:35:37.638Z,3.08
2023-01-06T15:40:40.718Z,0.60
2023-01-06T15:45:41.457Z,0.70
2023-01-06T15:50:42.359Z,0.77
2023-01-06T15:55:51.775Z,0.75
2023-01-06T16:00:58.403Z,0.93
2023-01-06T16:06:11.117Z,0.95
2023-01-06T16:11:41.679Z,0.70
2023-01-06T16:16:42.506Z,0.82
2023-01-06T16:21:45.250Z,0.90
2023-01-06T16:26:53.611Z,0.60
2023-01-06T16:31:54.315Z,1.42
2023-01-06T16:36:56.753Z,0.90
2023-01-06T16:42:40.455Z,0.65
2023-01-06T16:47:41.473Z,0.60
2023-01-06T16:52:42.349Z,0.70
2023-01-06T16:57:48.938Z,0.60
2023-01-06T17:02:51.185Z,0.80
2023-01-06T17:07:53.323Z,0.80
2023-01-06T17:13:15.229Z,0.70
2023-01-06T17:18:24.347Z,0.73
2023-01-06T17:23:25.058Z,0.80
2023-01-06T17:28:27.049Z,0.60
2023-01-06T17:33:29.628Z,0.80
2023-01-06T17:38:31.483Z,0.82
2023-01-06T17:43:36.245Z,0.70
2023-01-06T17:48:37.070Z,0.90
2023-01-06T17:53:55.677Z,0.80
2023-01-06T17:59:03.299Z,0.90
2023-01-06T18:04:09.096Z,1.38
2023-01-06T18:09:13.379Z,0.80
2023-01-06T18:14:27.984Z,0.80
2023-01-06T18:19:31.905Z,1.08
2023-01-06T18:24:37.365Z,1.10
2023-01-06T18:29:41.684Z,2.20
2023-01-06T18:34:44.989Z,1.30
2023-01-06T18:39:48.154Z,1.25
2023-01-06T18:44:50.955Z,1.25
2023-01-06T18:49:58.492Z,1.30
2023-01-06T18:55:00.687Z,1.20
2023-01-06T19:00:13.312Z,1.17
2023-01-06T19:05:14.738Z,1.20
2023-01-06T19:10:26.489Z,1.20
2023-01-06T19:15:28.546Z,0.90
2023-01-06T19:20:35.156Z,1.30
2023-01-06T19:25:40.851Z,1.02
2023-01-06T19:30:49.499Z,1.25
2023-01-06T19:35:51.824Z,1.17
2023-01-06T19:40:53.631Z,1.00
2023-01-06T19:45:55.804Z,1.00
2023-01-06T19:51:09.461Z,1.00
2023-01-06T19:56:17.373Z,1.00
2023-01-06T20:01:19.909Z,1.17
2023-01-06T20:06:21.567Z,0.90
2023-01-06T20:11:24.521Z,0.80
2023-01-06T20:16:26.573Z,0.70
2023-01-06T20:21:27.307Z,0.85
2023-01-06T20:26:28.032Z,0.90
2023-01-06T20:31:30.111Z,1.00
2023-01-06T20:36:30.951Z,1.20
2023-01-06T20:41:31.683Z,1.05
2023-01-06T20:46:33.705Z,1.08
2023-01-06T20:51:34.490Z,1.40
2023-01-06T20:56:35.150Z,1.15
2023-01-06T21:01:37.303Z,0.95
2023-01-06T21:06:38.039Z,1.10
2023-01-06T21:11:38.719Z,1.40
2023-01-06T21:16:40.770Z,1.38
2023-01-06T21:21:41.479Z,1.20
2023-01-06T21:26:42.179Z,1.10
2023-01-06T21:31:44.288Z,1.25
2023-01-06T21:36:45.008Z,1.17
2023-01-06T21:42:03.131Z,5.57
2023-01-06T21:47:05.424Z,1.60
2023-01-06T21:52:06.886Z,1.30
2023-01-06T21:57:07.606Z,1.25
2023-01-06T22:02:10.558Z,1.40
2023-01-06T22:07:11.675Z,1.60
2023-01-06T22:12:16.291Z,2.15
2023-01-06T22:17:19.366Z,1.92
2023-01-06T22:22:22.155Z,1.77
2023-01-06T22:27:23.855Z,1.90
2023-01-06T22:32:27.634Z,1.80
2023-01-06T22:37:28.304Z,2.22
2023-01-06T22:42:29.062Z,1.80
2023-01-06T22:47:31.140Z,2.15
2023-01-06T22:52:32.071Z,2.35
2023-01-06T22:57:32.765Z,2.20
2023-01-06T23:02:34.944Z,1.63
2023-01-06T23:07:38.124Z,2.08
2023-01-06T23:12:40.593Z,2.28
2023-01-06T23:17:42.587Z,1.88
2023-01-06T23:22:43.315Z,2.70
2023-01-06T23:27:44.103Z,2.30
2023-01-06T23:32:46.136Z,2.55
2023-01-06T23:37:46.765Z,1.88
2023-01-06T23:42:48.854Z,1.80
2023-01-06T23:47:51.080Z,1.58
2023-01-06T23:52:53.546Z,1.85
2023-01-06T23:57:55.355Z,1.65
